sensor_id;sensor_type;location;lat;lon;timestamp;pressure;altitude;pressure_sealevel;temperature;humidity
40948;BME280;49382;-25.924;28.194;2023-01-28T00:01:23;84859.13;;;25.78;31.93
40948;BME280;49382;-25.924;28.194;2023-01-28T00:03:50;84863.40;;;26.09;31.21
40948;BME280;49382;-25.924;28.194;2023-01-28T00:06:15;84862.67;;;26.10;31.11
40948;BME280;49382;-25.924;28.194;2023-01-28T00:08:40;84863.85;;;26.00;31.05
40948;BME280;49382;-25.924;28.194;2023-01-28T00:11:07;84860.15;;;25.29;32.31
40948;BME280;49382;-25.924;28.194;2023-01-28T00:13:32;84861.14;;;23.80;34.12
40948;BME280;49382;-25.924;28.194;2023-01-28T00:15:58;84860.03;;;25.90;32.01
40948;BME280;49382;-25.924;28.194;2023-01-28T00:18:23;84858.28;;;25.33;32.30
40948;BME280;49382;-25.924;28.194;2023-01-28T00:20:57;84861.96;;;25.10;32.96
40948;BME280;49382;-25.924;28.194;2023-01-28T00:23:14;84855.50;;;25.83;31.76
40948;BME280;49382;-25.924;28.194;2023-01-28T00:25:39;84861.15;;;24.87;32.84
40948;BME280;49382;-25.924;28.194;2023-01-28T00:28:05;84858.05;;;24.44;33.66
40948;BME280;49382;-25.924;28.194;2023-01-28T00:30:31;84856.21;;;25.28;32.69
40948;BME280;49382;-25.924;28.194;2023-01-28T00:32:57;84853.33;;;24.57;33.87
40948;BME280;49382;-25.924;28.194;2023-01-28T00:35:22;84854.03;;;24.21;34.07
40948;BME280;49382;-25.924;28.194;2023-01-28T00:37:48;84847.30;;;25.28;32.49
40948;BME280;49382;-25.924;28.194;2023-01-28T00:40:14;84843.97;;;25.59;32.31
40948;BME280;49382;-25.924;28.194;2023-01-28T00:42:39;84841.95;;;24.41;33.91
40948;BME280;49382;-25.924;28.194;2023-01-28T00:45:05;84845.68;;;24.70;33.79
40948;BME280;49382;-25.924;28.194;2023-01-28T00:47:30;84844.22;;;25.30;32.40
40948;BME280;49382;-25.924;28.194;2023-01-28T00:49:56;84849.27;;;24.74;33.46
40948;BME280;49382;-25.924;28.194;2023-01-28T00:52:22;84844.99;;;24.01;34.17
40948;BME280;49382;-25.924;28.194;2023-01-28T00:54:47;84847.20;;;25.13;33.34
40948;BME280;49382;-25.924;28.194;2023-01-28T00:57:13;84845.73;;;24.36;34.37
40948;BME280;49382;-25.924;28.194;2023-01-28T00:59:39;84849.62;;;25.30;33.36
40948;BME280;49382;-25.924;28.194;2023-01-28T01:02:04;84846.32;;;24.51;34.12
40948;BME280;49382;-25.924;28.194;2023-01-28T01:04:30;84846.55;;;24.23;34.43
40948;BME280;49382;-25.924;28.194;2023-01-28T01:06:56;84843.68;;;24.13;34.11
40948;BME280;49382;-25.924;28.194;2023-01-28T01:09:21;84846.74;;;24.88;33.47
40948;BME280;49382;-25.924;28.194;2023-01-28T01:11:47;84849.78;;;25.22;32.99
40948;BME280;49382;-25.924;28.194;2023-01-28T01:14:12;84852.23;;;24.99;32.69
40948;BME280;49382;-25.924;28.194;2023-01-28T01:16:38;84852.68;;;24.50;33.61
40948;BME280;49382;-25.924;28.194;2023-01-28T01:19:04;84856.64;;;25.06;32.49
40948;BME280;49382;-25.924;28.194;2023-01-28T01:21:29;84860.93;;;25.28;32.58
40948;BME280;49382;-25.924;28.194;2023-01-28T01:23:55;84863.59;;;24.94;32.45
40948;BME280;49382;-25.924;28.194;2023-01-28T01:26:21;84864.38;;;24.32;33.42
40948;BME280;49382;-25.924;28.194;2023-01-28T01:28:47;84868.14;;;24.56;33.40
40948;BME280;49382;-25.924;28.194;2023-01-28T01:31:13;84868.61;;;23.97;33.98
40948;BME280;49382;-25.924;28.194;2023-01-28T01:33:38;84866.36;;;23.78;34.33
40948;BME280;49382;-25.924;28.194;2023-01-28T01:36:03;84865.10;;;23.73;34.72
40948;BME280;49382;-25.924;28.194;2023-01-28T01:38:29;84865.57;;;23.73;34.48
40948;BME280;49382;-25.924;28.194;2023-01-28T01:40:56;84866.51;;;24.53;33.36
40948;BME280;49382;-25.924;28.194;2023-01-28T01:43:21;84867.91;;;25.21;32.17
40948;BME280;49382;-25.924;28.194;2023-01-28T01:45:47;84864.51;;;24.34;33.15
40948;BME280;49382;-25.924;28.194;2023-01-28T01:48:15;84865.51;;;23.91;34.04
40948;BME280;49382;-25.924;28.194;2023-01-28T01:50:41;84868.82;;;23.53;34.41
40948;BME280;49382;-25.924;28.194;2023-01-28T01:53:11;84868.31;;;24.20;33.18
40948;BME280;49382;-25.924;28.194;2023-01-28T01:55:30;84872.13;;;24.98;31.98
40948;BME280;49382;-25.924;28.194;2023-01-28T01:57:55;84873.62;;;25.44;31.22
40948;BME280;49382;-25.924;28.194;2023-01-28T02:00:18;84875.25;;;25.62;31.04
40948;BME280;49382;-25.924;28.194;2023-01-28T02:02:47;84881.27;;;25.94;31.09
40948;BME280;49382;-25.924;28.194;2023-01-28T02:05:11;84877.70;;;24.16;32.22
40948;BME280;49382;-25.924;28.194;2023-01-28T02:07:35;84880.05;;;24.99;31.83
40948;BME280;49382;-25.924;28.194;2023-01-28T02:09:59;84881.24;;;25.28;31.29
40948;BME280;49382;-25.924;28.194;2023-01-28T02:12:28;84877.93;;;23.83;32.83
40948;BME280;49382;-25.924;28.194;2023-01-28T02:14:54;84879.51;;;24.64;32.07
40948;BME280;49382;-25.924;28.194;2023-01-28T02:17:16;84883.10;;;24.65;32.27
40948;BME280;49382;-25.924;28.194;2023-01-28T02:19:47;84887.70;;;24.42;32.39
40948;BME280;49382;-25.924;28.194;2023-01-28T02:22:21;84888.66;;;24.28;32.77
40948;BME280;49382;-25.924;28.194;2023-01-28T02:29:29;84896.17;;;23.62;33.43
40948;BME280;49382;-25.924;28.194;2023-01-28T02:31:54;84899.67;;;24.28;32.29
40948;BME280;49382;-25.924;28.194;2023-01-28T02:34:22;84902.76;;;24.22;32.60
40948;BME280;49382;-25.924;28.194;2023-01-28T02:36:45;84906.80;;;23.85;32.95
40948;BME280;49382;-25.924;28.194;2023-01-28T02:39:10;84906.49;;;23.52;33.11
40948;BME280;49382;-25.924;28.194;2023-01-28T02:41:37;84905.63;;;23.51;33.35
40948;BME280;49382;-25.924;28.194;2023-01-28T02:44:01;84906.23;;;25.03;30.93
40948;BME280;49382;-25.924;28.194;2023-01-28T02:46:33;84908.31;;;24.02;32.01
40948;BME280;49382;-25.924;28.194;2023-01-28T02:48:50;84908.38;;;23.85;32.25
40948;BME280;49382;-25.924;28.194;2023-01-28T02:51:22;84907.58;;;24.49;31.67
40948;BME280;49382;-25.924;28.194;2023-01-28T02:53:46;84907.81;;;25.55;30.56
40948;BME280;49382;-25.924;28.194;2023-01-28T02:56:16;84908.11;;;25.73;29.84
40948;BME280;49382;-25.924;28.194;2023-01-28T02:58:37;84910.85;;;24.72;31.46
40948;BME280;49382;-25.924;28.194;2023-01-28T03:01:04;84914.17;;;25.05;30.82
40948;BME280;49382;-25.924;28.194;2023-01-28T03:03:28;84916.46;;;25.41;30.48
40948;BME280;49382;-25.924;28.194;2023-01-28T03:05:54;84921.88;;;25.65;30.20
40948;BME280;49382;-25.924;28.194;2023-01-28T03:08:17;84920.54;;;25.72;29.89
40948;BME280;49382;-25.924;28.194;2023-01-28T03:10:42;84918.83;;;25.13;30.22
40948;BME280;49382;-25.924;28.194;2023-01-28T03:13:08;84914.17;;;24.48;31.33
40948;BME280;49382;-25.924;28.194;2023-01-28T03:15:38;84915.69;;;23.70;32.73
40948;BME280;49382;-25.924;28.194;2023-01-28T03:18:02;84916.05;;;24.18;32.53
40948;BME280;49382;-25.924;28.194;2023-01-28T03:20:27;84917.92;;;23.86;33.52
40948;BME280;49382;-25.924;28.194;2023-01-28T03:22:52;84917.87;;;24.24;32.49
40948;BME280;49382;-25.924;28.194;2023-01-28T03:25:18;84922.05;;;24.25;32.47
40948;BME280;49382;-25.924;28.194;2023-01-28T03:27:46;84920.40;;;24.69;32.26
40948;BME280;49382;-25.924;28.194;2023-01-28T03:30:12;84924.03;;;25.05;31.42
40948;BME280;49382;-25.924;28.194;2023-01-28T03:32:34;84918.61;;;23.39;33.04
40948;BME280;49382;-25.924;28.194;2023-01-28T03:34:58;84913.26;;;23.16;33.25
40948;BME280;49382;-25.924;28.194;2023-01-28T03:37:24;84912.39;;;23.17;33.30
40948;BME280;49382;-25.924;28.194;2023-01-28T03:39:50;84914.42;;;23.53;32.63
40948;BME280;49382;-25.924;28.194;2023-01-28T03:42:16;84910.40;;;23.27;33.12
40948;BME280;49382;-25.924;28.194;2023-01-28T03:44:41;84910.76;;;23.72;32.58
40948;BME280;49382;-25.924;28.194;2023-01-28T03:47:07;84911.83;;;23.23;33.66
40948;BME280;49382;-25.924;28.194;2023-01-28T03:49:33;84914.11;;;22.20;35.03
40948;BME280;49382;-25.924;28.194;2023-01-28T03:51:59;84911.79;;;21.76;35.77
40948;BME280;49382;-25.924;28.194;2023-01-28T03:54:25;84912.04;;;20.70;36.94
40948;BME280;49382;-25.924;28.194;2023-01-28T03:56:51;84912.97;;;21.22;36.96
40948;BME280;49382;-25.924;28.194;2023-01-28T03:59:16;84912.37;;;20.55;38.62
40948;BME280;49382;-25.924;28.194;2023-01-28T04:01:42;84916.49;;;21.04;38.20
40948;BME280;49382;-25.924;28.194;2023-01-28T04:04:08;84920.21;;;21.15;38.49
40948;BME280;49382;-25.924;28.194;2023-01-28T04:06:34;84925.32;;;23.29;35.59
40948;BME280;49382;-25.924;28.194;2023-01-28T04:08:59;84931.59;;;22.78;35.20
40948;BME280;49382;-25.924;28.194;2023-01-28T04:11:25;84936.91;;;23.03;34.53
40948;BME280;49382;-25.924;28.194;2023-01-28T04:13:51;84943.09;;;23.11;34.38
40948;BME280;49382;-25.924;28.194;2023-01-28T04:16:16;84945.80;;;23.08;33.55
40948;BME280;49382;-25.924;28.194;2023-01-28T04:18:42;84952.70;;;23.36;34.19
40948;BME280;49382;-25.924;28.194;2023-01-28T04:21:08;84955.18;;;23.66;34.44
40948;BME280;49382;-25.924;28.194;2023-01-28T04:23:33;84955.37;;;22.43;36.02
40948;BME280;49382;-25.924;28.194;2023-01-28T04:25:59;84960.78;;;22.86;35.30
40948;BME280;49382;-25.924;28.194;2023-01-28T04:28:25;84964.29;;;23.00;34.84
40948;BME280;49382;-25.924;28.194;2023-01-28T04:30:52;84965.03;;;22.72;35.25
40948;BME280;49382;-25.924;28.194;2023-01-28T04:33:17;84967.68;;;23.70;34.50
40948;BME280;49382;-25.924;28.194;2023-01-28T04:35:42;84971.99;;;23.42;34.45
40948;BME280;49382;-25.924;28.194;2023-01-28T04:38:08;84972.26;;;24.10;34.03
40948;BME280;49382;-25.924;28.194;2023-01-28T04:40:34;84974.25;;;24.00;33.68
40948;BME280;49382;-25.924;28.194;2023-01-28T04:43:00;84976.67;;;23.48;35.04
40948;BME280;49382;-25.924;28.194;2023-01-28T04:45:26;84975.72;;;23.01;35.81
40948;BME280;49382;-25.924;28.194;2023-01-28T04:47:51;84978.87;;;23.52;34.19
40948;BME280;49382;-25.924;28.194;2023-01-28T04:50:17;84980.30;;;22.88;35.47
40948;BME280;49382;-25.924;28.194;2023-01-28T04:52:43;84986.67;;;22.91;34.96
40948;BME280;49382;-25.924;28.194;2023-01-28T04:55:09;84990.23;;;24.30;33.43
40948;BME280;49382;-25.924;28.194;2023-01-28T04:57:34;84989.43;;;23.16;34.58
40948;BME280;49382;-25.924;28.194;2023-01-28T05:00:00;84990.13;;;24.08;33.12
40948;BME280;49382;-25.924;28.194;2023-01-28T05:02:26;84991.32;;;23.99;34.04
40948;BME280;49382;-25.924;28.194;2023-01-28T05:04:52;84995.12;;;23.91;34.12
40948;BME280;49382;-25.924;28.194;2023-01-28T05:07:18;84999.04;;;24.07;33.63
40948;BME280;49382;-25.924;28.194;2023-01-28T05:09:43;84999.77;;;23.57;33.40
40948;BME280;49382;-25.924;28.194;2023-01-28T05:12:09;84998.05;;;23.32;33.60
40948;BME280;49382;-25.924;28.194;2023-01-28T05:14:35;84996.56;;;23.82;34.21
40948;BME280;49382;-25.924;28.194;2023-01-28T05:17:01;84994.67;;;24.20;33.57
40948;BME280;49382;-25.924;28.194;2023-01-28T05:19:26;84995.24;;;24.33;33.03
40948;BME280;49382;-25.924;28.194;2023-01-28T05:21:52;84994.09;;;23.72;33.12
40948;BME280;49382;-25.924;28.194;2023-01-28T05:24:18;84994.41;;;23.69;33.80
40948;BME280;49382;-25.924;28.194;2023-01-28T05:26:44;84991.36;;;23.57;33.54
40948;BME280;49382;-25.924;28.194;2023-01-28T05:29:10;84992.14;;;24.48;33.97
40948;BME280;49382;-25.924;28.194;2023-01-28T05:31:35;84984.73;;;23.93;34.22
40948;BME280;49382;-25.924;28.194;2023-01-28T05:34:01;84985.67;;;24.90;33.35
40948;BME280;49382;-25.924;28.194;2023-01-28T05:36:27;84982.96;;;24.15;34.55
40948;BME280;49382;-25.924;28.194;2023-01-28T05:38:53;84981.67;;;25.00;32.98
40948;BME280;49382;-25.924;28.194;2023-01-28T05:41:18;84978.88;;;24.00;34.22
40948;BME280;49382;-25.924;28.194;2023-01-28T05:43:44;84977.89;;;23.79;33.03
40948;BME280;49382;-25.924;28.194;2023-01-28T05:46:10;84978.78;;;23.54;35.40
40948;BME280;49382;-25.924;28.194;2023-01-28T05:48:36;84982.08;;;23.76;35.12
40948;BME280;49382;-25.924;28.194;2023-01-28T05:51:02;84983.61;;;24.35;33.96
40948;BME280;49382;-25.924;28.194;2023-01-28T05:53:27;84983.47;;;25.25;33.10
40948;BME280;49382;-25.924;28.194;2023-01-28T05:55:53;84982.87;;;25.67;33.18
40948;BME280;49382;-25.924;28.194;2023-01-28T05:58:19;84981.52;;;25.98;31.82
40948;BME280;49382;-25.924;28.194;2023-01-28T06:00:45;84978.45;;;25.60;32.65
40948;BME280;49382;-25.924;28.194;2023-01-28T06:03:11;84980.08;;;26.37;32.04
40948;BME280;49382;-25.924;28.194;2023-01-28T06:05:36;84976.09;;;25.97;33.71
40948;BME280;49382;-25.924;28.194;2023-01-28T06:08:02;84975.76;;;25.07;33.85
40948;BME280;49382;-25.924;28.194;2023-01-28T06:10:28;84978.25;;;25.75;32.88
40948;BME280;49382;-25.924;28.194;2023-01-28T06:12:53;84977.04;;;25.58;33.31
40948;BME280;49382;-25.924;28.194;2023-01-28T06:15:19;84975.16;;;25.62;33.19
40948;BME280;49382;-25.924;28.194;2023-01-28T06:17:45;84971.12;;;27.41;30.96
40948;BME280;49382;-25.924;28.194;2023-01-28T06:20:11;84977.39;;;28.39;29.65
40948;BME280;49382;-25.924;28.194;2023-01-28T06:22:37;84977.51;;;27.25;30.35
40948;BME280;49382;-25.924;28.194;2023-01-28T06:25:02;84975.98;;;27.82;29.21
40948;BME280;49382;-25.924;28.194;2023-01-28T06:27:28;84971.96;;;27.19;30.68
40948;BME280;49382;-25.924;28.194;2023-01-28T06:29:54;84969.49;;;27.81;30.20
40948;BME280;49382;-25.924;28.194;2023-01-28T06:32:19;84967.32;;;28.65;28.55
40948;BME280;49382;-25.924;28.194;2023-01-28T06:34:45;84972.07;;;28.76;28.49
40948;BME280;49382;-25.924;28.194;2023-01-28T06:37:12;84976.16;;;28.56;28.95
40948;BME280;49382;-25.924;28.194;2023-01-28T06:39:37;84973.04;;;28.45;29.33
40948;BME280;49382;-25.924;28.194;2023-01-28T06:42:01;84970.30;;;28.37;28.71
40948;BME280;49382;-25.924;28.194;2023-01-28T06:44:27;84964.99;;;27.94;29.50
40948;BME280;49382;-25.924;28.194;2023-01-28T06:46:54;84960.44;;;28.93;28.04
40948;BME280;49382;-25.924;28.194;2023-01-28T06:49:18;84958.84;;;27.54;29.80
40948;BME280;49382;-25.924;28.194;2023-01-28T06:51:44;84959.01;;;28.78;28.14
40948;BME280;49382;-25.924;28.194;2023-01-28T06:54:10;84955.32;;;27.66;28.60
40948;BME280;49382;-25.924;28.194;2023-01-28T06:56:36;84953.81;;;28.63;27.77
40948;BME280;49382;-25.924;28.194;2023-01-28T06:59:02;84946.61;;;29.35;27.70
40948;BME280;49382;-25.924;28.194;2023-01-28T07:01:27;84943.08;;;27.99;28.40
40948;BME280;49382;-25.924;28.194;2023-01-28T07:03:53;84935.13;;;29.11;27.85
40948;BME280;49382;-25.924;28.194;2023-01-28T07:06:19;84941.06;;;29.60;27.30
40948;BME280;49382;-25.924;28.194;2023-01-28T07:08:45;84942.94;;;29.84;27.71
40948;BME280;49382;-25.924;28.194;2023-01-28T07:11:10;84942.60;;;30.14;27.19
40948;BME280;49382;-25.924;28.194;2023-01-28T07:13:36;84945.49;;;30.16;27.11
40948;BME280;49382;-25.924;28.194;2023-01-28T07:16:02;84941.01;;;29.76;27.28
40948;BME280;49382;-25.924;28.194;2023-01-28T07:18:28;84944.03;;;29.42;27.67
40948;BME280;49382;-25.924;28.194;2023-01-28T07:20:54;84942.30;;;30.26;27.10
40948;BME280;49382;-25.924;28.194;2023-01-28T07:23:19;84937.08;;;29.06;27.86
40948;BME280;49382;-25.924;28.194;2023-01-28T07:25:45;84936.02;;;29.73;28.56
40948;BME280;49382;-25.924;28.194;2023-01-28T07:28:11;84932.40;;;30.19;27.92
40948;BME280;49382;-25.924;28.194;2023-01-28T07:30:37;84928.39;;;29.05;30.05
40948;BME280;49382;-25.924;28.194;2023-01-28T07:33:03;84927.84;;;29.23;29.95
40948;BME280;49382;-25.924;28.194;2023-01-28T07:35:28;84927.57;;;28.80;30.46
40948;BME280;49382;-25.924;28.194;2023-01-28T07:37:56;84926.09;;;28.82;29.00
40948;BME280;49382;-25.924;28.194;2023-01-28T07:40:20;84927.53;;;29.24;29.69
40948;BME280;49382;-25.924;28.194;2023-01-28T07:42:45;84923.74;;;29.50;29.14
40948;BME280;49382;-25.924;28.194;2023-01-28T07:45:11;84923.08;;;30.05;28.15
40948;BME280;49382;-25.924;28.194;2023-01-28T07:47:36;84917.19;;;30.36;27.53
40948;BME280;49382;-25.924;28.194;2023-01-28T07:50:02;84912.34;;;28.74;29.46
40948;BME280;49382;-25.924;28.194;2023-01-28T07:52:27;84908.70;;;28.57;29.83
40948;BME280;49382;-25.924;28.194;2023-01-28T07:54:53;84909.12;;;29.62;28.93
40948;BME280;49382;-25.924;28.194;2023-01-28T07:57:17;84909.07;;;29.67;28.84
40948;BME280;49382;-25.924;28.194;2023-01-28T07:59:43;84904.73;;;29.41;31.23
40948;BME280;49382;-25.924;28.194;2023-01-28T08:02:10;84902.54;;;29.12;29.29
40948;BME280;49382;-25.924;28.194;2023-01-28T08:04:34;84904.63;;;28.48;29.59
40948;BME280;49382;-25.924;28.194;2023-01-28T08:07:00;84907.55;;;29.11;30.20
40948;BME280;49382;-25.924;28.194;2023-01-28T08:09:26;84905.81;;;30.19;28.82
40948;BME280;49382;-25.924;28.194;2023-01-28T08:11:52;84903.68;;;29.69;29.57
40948;BME280;49382;-25.924;28.194;2023-01-28T08:14:18;84900.15;;;29.86;28.05
40948;BME280;49382;-25.924;28.194;2023-01-28T08:16:43;84906.12;;;30.82;27.66
40948;BME280;49382;-25.924;28.194;2023-01-28T08:19:09;84905.87;;;30.90;27.61
40948;BME280;49382;-25.924;28.194;2023-01-28T08:21:35;84910.26;;;30.97;28.19
40948;BME280;49382;-25.924;28.194;2023-01-28T08:24:00;84905.92;;;31.31;28.14
40948;BME280;49382;-25.924;28.194;2023-01-28T08:26:26;84901.60;;;30.62;28.85
40948;BME280;49382;-25.924;28.194;2023-01-28T08:28:52;84898.79;;;30.65;27.59
40948;BME280;49382;-25.924;28.194;2023-01-28T08:31:18;84891.16;;;30.84;27.88
40948;BME280;49382;-25.924;28.194;2023-01-28T08:33:43;84886.51;;;31.37;27.49
40948;BME280;49382;-25.924;28.194;2023-01-28T08:36:09;84886.34;;;31.41;28.05
40948;BME280;49382;-25.924;28.194;2023-01-28T08:38:35;84883.82;;;30.82;28.06
40948;BME280;49382;-25.924;28.194;2023-01-28T08:41:00;84877.78;;;31.54;28.27
40948;BME280;49382;-25.924;28.194;2023-01-28T08:43:26;84876.56;;;31.37;28.02
40948;BME280;49382;-25.924;28.194;2023-01-28T08:45:52;84870.86;;;31.64;27.55
40948;BME280;49382;-25.924;28.194;2023-01-28T08:48:20;84871.47;;;30.82;27.26
40948;BME280;49382;-25.924;28.194;2023-01-28T08:50:43;84865.91;;;31.48;26.92
40948;BME280;49382;-25.924;28.194;2023-01-28T08:53:11;84858.87;;;31.78;26.20
40948;BME280;49382;-25.924;28.194;2023-01-28T08:55:35;84861.93;;;31.84;27.12
40948;BME280;49382;-25.924;28.194;2023-01-28T08:58:02;84857.89;;;31.41;27.19
40948;BME280;49382;-25.924;28.194;2023-01-28T09:00:26;84861.79;;;30.82;27.78
40948;BME280;49382;-25.924;28.194;2023-01-28T09:02:52;84854.86;;;31.13;27.66
40948;BME280;49382;-25.924;28.194;2023-01-28T09:05:18;84851.54;;;30.68;27.39
40948;BME280;49382;-25.924;28.194;2023-01-28T09:07:43;84849.51;;;31.56;27.02
40948;BME280;49382;-25.924;28.194;2023-01-28T09:10:10;84849.83;;;31.58;26.68
40948;BME280;49382;-25.924;28.194;2023-01-28T09:12:35;84851.98;;;31.69;26.94
40948;BME280;49382;-25.924;28.194;2023-01-28T09:15:01;84850.66;;;31.70;27.58
40948;BME280;49382;-25.924;28.194;2023-01-28T09:17:26;84841.51;;;31.48;27.02
40948;BME280;49382;-25.924;28.194;2023-01-28T09:19:52;84836.52;;;31.86;27.52
40948;BME280;49382;-25.924;28.194;2023-01-28T09:22:18;84837.05;;;31.53;26.86
40948;BME280;49382;-25.924;28.194;2023-01-28T09:24:44;84830.62;;;30.81;28.12
40948;BME280;49382;-25.924;28.194;2023-01-28T09:27:09;84827.35;;;31.75;26.54
40948;BME280;49382;-25.924;28.194;2023-01-28T09:29:35;84819.11;;;31.28;26.49
40948;BME280;49382;-25.924;28.194;2023-01-28T09:32:01;84823.34;;;31.60;26.06
40948;BME280;49382;-25.924;28.194;2023-01-28T09:34:26;84819.33;;;30.64;27.67
40948;BME280;49382;-25.924;28.194;2023-01-28T09:36:53;84816.23;;;31.47;26.72
40948;BME280;49382;-25.924;28.194;2023-01-28T09:39:18;84817.74;;;32.04;26.63
40948;BME280;49382;-25.924;28.194;2023-01-28T09:41:50;84813.67;;;31.64;27.48
40948;BME280;49382;-25.924;28.194;2023-01-28T09:44:24;84810.65;;;31.83;26.21
40948;BME280;49382;-25.924;28.194;2023-01-28T09:46:36;84804.98;;;31.79;26.37
40948;BME280;49382;-25.924;28.194;2023-01-28T09:49:04;84811.56;;;30.07;27.88
40948;BME280;49382;-25.924;28.194;2023-01-28T09:51:32;84802.13;;;31.26;26.54
40948;BME280;49382;-25.924;28.194;2023-01-28T09:53:55;84798.73;;;30.52;25.06
40948;BME280;49382;-25.924;28.194;2023-01-28T09:56:23;84801.56;;;31.71;25.48
40948;BME280;49382;-25.924;28.194;2023-01-28T09:58:44;84795.76;;;31.51;26.61
40948;BME280;49382;-25.924;28.194;2023-01-28T10:01:21;84790.92;;;32.16;25.77
40948;BME280;49382;-25.924;28.194;2023-01-28T10:03:46;84789.58;;;31.55;26.72
40948;BME280;49382;-25.924;28.194;2023-01-28T10:06:10;84788.85;;;31.61;26.34
40948;BME280;49382;-25.924;28.194;2023-01-28T10:08:38;84785.72;;;31.98;26.87
40948;BME280;49382;-25.924;28.194;2023-01-28T10:10:58;84784.30;;;32.13;26.88
40948;BME280;49382;-25.924;28.194;2023-01-28T10:13:26;84775.58;;;30.48;28.00
40948;BME280;49382;-25.924;28.194;2023-01-28T10:15:53;84777.84;;;31.51;26.39
40948;BME280;49382;-25.924;28.194;2023-01-28T10:18:11;84778.30;;;31.55;26.70
40948;BME280;49382;-25.924;28.194;2023-01-28T10:20:40;84771.33;;;31.97;26.11
40948;BME280;49382;-25.924;28.194;2023-01-28T10:23:05;84769.47;;;30.61;26.53
40948;BME280;49382;-25.924;28.194;2023-01-28T10:25:30;84769.46;;;31.31;26.39
40948;BME280;49382;-25.924;28.194;2023-01-28T10:27:53;84766.15;;;31.42;26.80
40948;BME280;49382;-25.924;28.194;2023-01-28T10:30:21;84763.30;;;32.01;25.04
40948;BME280;49382;-25.924;28.194;2023-01-28T10:32:49;84757.60;;;31.58;25.38
40948;BME280;49382;-25.924;28.194;2023-01-28T10:35:10;84752.06;;;31.69;24.27
40948;BME280;49382;-25.924;28.194;2023-01-28T10:37:37;84746.23;;;31.64;23.69
40948;BME280;49382;-25.924;28.194;2023-01-28T10:40:02;84745.33;;;32.15;24.56
40948;BME280;49382;-25.924;28.194;2023-01-28T10:42:30;84745.04;;;32.11;25.31
40948;BME280;49382;-25.924;28.194;2023-01-28T10:44:56;84737.87;;;32.47;24.84
40948;BME280;49382;-25.924;28.194;2023-01-28T10:47:26;84737.96;;;32.23;24.58
40948;BME280;49382;-25.924;28.194;2023-01-28T10:49:48;84742.91;;;32.26;24.51
40948;BME280;49382;-25.924;28.194;2023-01-28T10:52:12;84740.47;;;32.08;23.98
40948;BME280;49382;-25.924;28.194;2023-01-28T10:54:35;84732.69;;;31.96;25.41
40948;BME280;49382;-25.924;28.194;2023-01-28T10:57:04;84731.66;;;30.80;22.14
40948;BME280;49382;-25.924;28.194;2023-01-28T10:59:28;84726.26;;;31.44;24.04
40948;BME280;49382;-25.924;28.194;2023-01-28T11:01:54;84720.48;;;32.13;23.30
40948;BME280;49382;-25.924;28.194;2023-01-28T11:04:23;84718.71;;;32.05;24.15
40948;BME280;49382;-25.924;28.194;2023-01-28T11:06:53;84711.82;;;31.06;24.48
40948;BME280;49382;-25.924;28.194;2023-01-28T11:11:35;84711.42;;;31.54;23.50
40948;BME280;49382;-25.924;28.194;2023-01-28T11:14:02;84706.74;;;32.12;22.92
40948;BME280;49382;-25.924;28.194;2023-01-28T11:16:27;84695.97;;;32.03;22.46
40948;BME280;49382;-25.924;28.194;2023-01-28T11:18:54;84701.36;;;32.41;22.45
40948;BME280;49382;-25.924;28.194;2023-01-28T11:21:20;84699.23;;;32.39;21.64
40948;BME280;49382;-25.924;28.194;2023-01-28T11:23:50;84697.74;;;31.68;21.59
40948;BME280;49382;-25.924;28.194;2023-01-28T11:26:16;84692.26;;;31.46;21.99
40948;BME280;49382;-25.924;28.194;2023-01-28T11:28:40;84687.65;;;30.97;23.80
40948;BME280;49382;-25.924;28.194;2023-01-28T11:31:03;84683.99;;;31.65;22.83
40948;BME280;49382;-25.924;28.194;2023-01-28T11:33:31;84692.62;;;32.21;23.31
40948;BME280;49382;-25.924;28.194;2023-01-28T11:35:54;84690.04;;;32.07;22.93
40948;BME280;49382;-25.924;28.194;2023-01-28T11:38:20;84682.33;;;31.63;23.36
40948;BME280;49382;-25.924;28.194;2023-01-28T11:40:49;84677.09;;;31.18;21.57
40948;BME280;49382;-25.924;28.194;2023-01-28T11:43:10;84676.73;;;31.08;21.57
40948;BME280;49382;-25.924;28.194;2023-01-28T11:45:41;84677.52;;;32.00;21.39
40948;BME280;49382;-25.924;28.194;2023-01-28T11:48:12;84671.55;;;31.63;21.47
40948;BME280;49382;-25.924;28.194;2023-01-28T11:50:36;84668.11;;;31.85;22.52
40948;BME280;49382;-25.924;28.194;2023-01-28T11:53:01;84658.44;;;31.14;23.73
40948;BME280;49382;-25.924;28.194;2023-01-28T11:55:32;84654.32;;;31.48;22.93
40948;BME280;49382;-25.924;28.194;2023-01-28T11:57:51;84658.38;;;31.89;23.14
40948;BME280;49382;-25.924;28.194;2023-01-28T12:02:47;84651.86;;;32.14;22.03
40948;BME280;49382;-25.924;28.194;2023-01-28T12:05:10;84649.53;;;32.57;21.89
40948;BME280;49382;-25.924;28.194;2023-01-28T12:07:36;84644.70;;;31.73;22.33
40948;BME280;49382;-25.924;28.194;2023-01-28T12:09:57;84639.29;;;32.51;22.14
40948;BME280;49382;-25.924;28.194;2023-01-28T12:14:56;84632.33;;;32.71;19.68
40948;BME280;49382;-25.924;28.194;2023-01-28T12:17:20;84626.10;;;31.91;19.15
40948;BME280;49382;-25.924;28.194;2023-01-28T12:19:46;84626.94;;;32.25;19.50
40948;BME280;49382;-25.924;28.194;2023-01-28T12:22:14;84623.32;;;32.36;19.45
40948;BME280;49382;-25.924;28.194;2023-01-28T12:24:39;84624.62;;;31.84;18.85
40948;BME280;49382;-25.924;28.194;2023-01-28T12:27:01;84618.14;;;32.56;18.17
40948;BME280;49382;-25.924;28.194;2023-01-28T12:29:26;84617.13;;;32.66;17.37
40948;BME280;49382;-25.924;28.194;2023-01-28T12:31:56;84613.45;;;32.62;17.84
40948;BME280;49382;-25.924;28.194;2023-01-28T12:36:45;84610.04;;;32.68;17.93
40948;BME280;49382;-25.924;28.194;2023-01-28T12:39:10;84609.04;;;32.66;17.43
40948;BME280;49382;-25.924;28.194;2023-01-28T12:41:31;84606.91;;;32.71;17.00
40948;BME280;49382;-25.924;28.194;2023-01-28T12:43:57;84599.93;;;32.94;16.91
40948;BME280;49382;-25.924;28.194;2023-01-28T12:46:27;84594.62;;;32.15;16.90